Terminal Aerodrome Forecast
Issued by NWS Grand Forks, ND

Home | Current Version | Previous Version | Graphics & Text | Print | Product List | Glossary On
Versions: 1 2 3 4 5 6 7 8 9 10 11 12 13 14 15 16
000
FTUS43 KFGF 221126
TAFGFK
TAF
KGFK 221126Z 2212/2312 16008KT P6SM FEW250
      TEMPO 2212/2214 3SM BR
     FM221600 18006KT P6SM SCT040
     FM230000 15005KT P6SM SCT040
     FM230100 14005KT P6SM SCT090=

USA.gov is the U.S. government's official web portal to all federal, state and local government web resources and services.